sensor_id;sensor_type;location;lat;lon;timestamp;P1;durP1;ratioP1;P2;durP2;ratioP2
72205;SDS011;60111;48.286;7.812;2023-04-16T00:02:13;11.30;;;9.87;;
72205;SDS011;60111;48.286;7.812;2023-04-16T00:04:46;12.47;;;9.40;;
72205;SDS011;60111;48.286;7.812;2023-04-16T00:07:18;12.70;;;10.77;;
72205;SDS011;60111;48.286;7.812;2023-04-16T00:09:51;11.95;;;10.40;;
72205;SDS011;60111;48.286;7.812;2023-04-16T00:12:24;11.95;;;10.63;;
72205;SDS011;60111;48.286;7.812;2023-04-16T00:14:56;12.70;;;11.35;;
72205;SDS011;60111;48.286;7.812;2023-04-16T00:17:29;13.53;;;11.70;;
72205;SDS011;60111;48.286;7.812;2023-04-16T00:20:02;13.72;;;11.00;;
72205;SDS011;60111;48.286;7.812;2023-04-16T00:22:35;14.35;;;11.57;;
72205;SDS011;60111;48.286;7.812;2023-04-16T00:25:09;12.37;;;11.07;;
72205;SDS011;60111;48.286;7.812;2023-04-16T00:27:42;12.20;;;10.08;;
72205;SDS011;60111;48.286;7.812;2023-04-16T00:30:15;12.20;;;10.83;;
72205;SDS011;60111;48.286;7.812;2023-04-16T00:32:48;14.33;;;11.08;;
72205;SDS011;60111;48.286;7.812;2023-04-16T00:35:20;12.13;;;10.32;;
72205;SDS011;60111;48.286;7.812;2023-04-16T00:37:53;11.05;;;9.90;;
72205;SDS011;60111;48.286;7.812;2023-04-16T00:40:26;15.65;;;10.60;;
72205;SDS011;60111;48.286;7.812;2023-04-16T00:42:59;11.60;;;10.05;;
72205;SDS011;60111;48.286;7.812;2023-04-16T00:45:31;13.15;;;9.83;;
72205;SDS011;60111;48.286;7.812;2023-04-16T00:48:05;14.43;;;10.82;;
72205;SDS011;60111;48.286;7.812;2023-04-16T00:50:37;12.15;;;10.58;;
72205;SDS011;60111;48.286;7.812;2023-04-16T00:53:10;15.45;;;10.68;;
72205;SDS011;60111;48.286;7.812;2023-04-16T00:55:42;12.05;;;10.50;;
72205;SDS011;60111;48.286;7.812;2023-04-16T00:58:16;11.75;;;10.50;;
72205;SDS011;60111;48.286;7.812;2023-04-16T01:00:49;15.05;;;11.85;;
72205;SDS011;60111;48.286;7.812;2023-04-16T01:03:22;13.90;;;12.10;;
72205;SDS011;60111;48.286;7.812;2023-04-16T01:05:57;15.83;;;12.18;;
72205;SDS011;60111;48.286;7.812;2023-04-16T01:08:33;12.98;;;11.05;;
72205;SDS011;60111;48.286;7.812;2023-04-16T01:11:06;15.37;;;12.20;;
72205;SDS011;60111;48.286;7.812;2023-04-16T01:16:12;13.40;;;11.95;;
72205;SDS011;60111;48.286;7.812;2023-04-16T01:18:44;13.03;;;10.50;;
72205;SDS011;60111;48.286;7.812;2023-04-16T01:21:17;12.43;;;11.10;;
72205;SDS011;60111;48.286;7.812;2023-04-16T01:23:49;16.30;;;12.37;;
72205;SDS011;60111;48.286;7.812;2023-04-16T01:26:22;16.90;;;13.20;;
72205;SDS011;60111;48.286;7.812;2023-04-16T01:28:55;15.50;;;12.68;;
72205;SDS011;60111;48.286;7.812;2023-04-16T01:31:27;15.00;;;12.43;;
72205;SDS011;60111;48.286;7.812;2023-04-16T01:34:00;15.43;;;12.82;;
72205;SDS011;60111;48.286;7.812;2023-04-16T01:36:32;14.55;;;13.05;;
72205;SDS011;60111;48.286;7.812;2023-04-16T01:39:05;17.37;;;14.03;;
72205;SDS011;60111;48.286;7.812;2023-04-16T01:41:39;15.18;;;12.93;;
72205;SDS011;60111;48.286;7.812;2023-04-16T01:44:13;16.37;;;13.73;;
72205;SDS011;60111;48.286;7.812;2023-04-16T01:46:46;16.85;;;13.40;;
72205;SDS011;60111;48.286;7.812;2023-04-16T01:49:18;15.87;;;13.13;;
72205;SDS011;60111;48.286;7.812;2023-04-16T01:51:51;19.17;;;15.30;;
72205;SDS011;60111;48.286;7.812;2023-04-16T01:54:23;15.78;;;13.48;;
72205;SDS011;60111;48.286;7.812;2023-04-16T01:56:56;17.02;;;14.25;;
72205;SDS011;60111;48.286;7.812;2023-04-16T01:59:29;14.80;;;12.85;;
72205;SDS011;60111;48.286;7.812;2023-04-16T02:02:07;15.03;;;13.05;;
72205;SDS011;60111;48.286;7.812;2023-04-16T02:04:42;19.02;;;13.50;;
72205;SDS011;60111;48.286;7.812;2023-04-16T02:07:16;16.40;;;13.10;;
72205;SDS011;60111;48.286;7.812;2023-04-16T02:09:48;16.70;;;14.10;;
72205;SDS011;60111;48.286;7.812;2023-04-16T02:12:21;17.87;;;13.88;;
72205;SDS011;60111;48.286;7.812;2023-04-16T02:14:54;17.90;;;13.70;;
72205;SDS011;60111;48.286;7.812;2023-04-16T02:17:26;18.05;;;13.60;;
72205;SDS011;60111;48.286;7.812;2023-04-16T02:19:59;16.23;;;13.13;;
72205;SDS011;60111;48.286;7.812;2023-04-16T02:25:07;15.50;;;13.05;;
72205;SDS011;60111;48.286;7.812;2023-04-16T02:27:39;17.15;;;12.90;;
72205;SDS011;60111;48.286;7.812;2023-04-16T02:30:12;17.87;;;13.22;;
72205;SDS011;60111;48.286;7.812;2023-04-16T02:32:44;16.77;;;13.30;;
72205;SDS011;60111;48.286;7.812;2023-04-16T02:35:17;14.95;;;12.50;;
72205;SDS011;60111;48.286;7.812;2023-04-16T02:37:49;17.67;;;13.85;;
72205;SDS011;60111;48.286;7.812;2023-04-16T02:40:22;15.30;;;12.63;;
72205;SDS011;60111;48.286;7.812;2023-04-16T02:42:56;15.63;;;13.33;;
72205;SDS011;60111;48.286;7.812;2023-04-16T02:45:28;13.90;;;12.18;;
72205;SDS011;60111;48.286;7.812;2023-04-16T02:48:01;15.88;;;13.38;;
72205;SDS011;60111;48.286;7.812;2023-04-16T02:50:35;16.27;;;12.95;;
72205;SDS011;60111;48.286;7.812;2023-04-16T02:53:07;15.30;;;12.87;;
72205;SDS011;60111;48.286;7.812;2023-04-16T02:55:40;15.70;;;13.35;;
72205;SDS011;60111;48.286;7.812;2023-04-16T02:58:15;17.60;;;13.25;;
72205;SDS011;60111;48.286;7.812;2023-04-16T03:03:21;15.08;;;13.18;;
72205;SDS011;60111;48.286;7.812;2023-04-16T03:05:54;16.25;;;13.53;;
72205;SDS011;60111;48.286;7.812;2023-04-16T03:08:26;15.23;;;12.80;;
72205;SDS011;60111;48.286;7.812;2023-04-16T03:10:59;16.20;;;12.68;;
72205;SDS011;60111;48.286;7.812;2023-04-16T03:13:31;17.42;;;12.85;;
72205;SDS011;60111;48.286;7.812;2023-04-16T03:16:05;15.77;;;12.70;;
72205;SDS011;60111;48.286;7.812;2023-04-16T03:18:38;13.47;;;12.07;;
72205;SDS011;60111;48.286;7.812;2023-04-16T03:21:10;16.37;;;12.80;;
72205;SDS011;60111;48.286;7.812;2023-04-16T03:23:43;14.90;;;12.30;;
72205;SDS011;60111;48.286;7.812;2023-04-16T03:26:15;13.30;;;11.15;;
72205;SDS011;60111;48.286;7.812;2023-04-16T03:28:48;17.23;;;12.90;;
72205;SDS011;60111;48.286;7.812;2023-04-16T03:31:22;15.15;;;12.28;;
72205;SDS011;60111;48.286;7.812;2023-04-16T03:33:55;13.40;;;11.35;;
72205;SDS011;60111;48.286;7.812;2023-04-16T03:36:29;12.87;;;10.83;;
72205;SDS011;60111;48.286;7.812;2023-04-16T03:39:02;15.50;;;11.57;;
72205;SDS011;60111;48.286;7.812;2023-04-16T03:41:35;13.90;;;11.63;;
72205;SDS011;60111;48.286;7.812;2023-04-16T03:44:08;13.05;;;11.65;;
72205;SDS011;60111;48.286;7.812;2023-04-16T03:46:40;12.20;;;10.53;;
72205;SDS011;60111;48.286;7.812;2023-04-16T03:49:13;11.97;;;10.13;;
72205;SDS011;60111;48.286;7.812;2023-04-16T03:51:46;12.03;;;9.60;;
72205;SDS011;60111;48.286;7.812;2023-04-16T03:54:18;11.88;;;10.05;;
72205;SDS011;60111;48.286;7.812;2023-04-16T03:56:51;11.50;;;10.30;;
72205;SDS011;60111;48.286;7.812;2023-04-16T03:59:23;11.73;;;10.08;;
72205;SDS011;60111;48.286;7.812;2023-04-16T04:01:56;13.13;;;9.85;;
72205;SDS011;60111;48.286;7.812;2023-04-16T04:04:28;12.23;;;10.60;;
72205;SDS011;60111;48.286;7.812;2023-04-16T04:07:01;13.18;;;10.68;;
72205;SDS011;60111;48.286;7.812;2023-04-16T04:09:34;12.75;;;10.50;;
72205;SDS011;60111;48.286;7.812;2023-04-16T04:12:06;12.85;;;10.08;;
72205;SDS011;60111;48.286;7.812;2023-04-16T04:14:39;11.45;;;10.23;;
72205;SDS011;60111;48.286;7.812;2023-04-16T04:17:12;11.70;;;10.30;;
72205;SDS011;60111;48.286;7.812;2023-04-16T04:19:45;11.90;;;10.40;;
72205;SDS011;60111;48.286;7.812;2023-04-16T04:22:18;13.85;;;10.65;;
72205;SDS011;60111;48.286;7.812;2023-04-16T04:24:50;11.15;;;9.70;;
72205;SDS011;60111;48.286;7.812;2023-04-16T04:27:23;12.95;;;9.93;;
72205;SDS011;60111;48.286;7.812;2023-04-16T04:29:56;13.10;;;9.80;;
72205;SDS011;60111;48.286;7.812;2023-04-16T04:32:29;10.45;;;9.35;;
72205;SDS011;60111;48.286;7.812;2023-04-16T04:35:02;10.78;;;9.20;;
72205;SDS011;60111;48.286;7.812;2023-04-16T04:37:35;9.38;;;8.45;;
72205;SDS011;60111;48.286;7.812;2023-04-16T04:40:08;10.18;;;8.43;;
72205;SDS011;60111;48.286;7.812;2023-04-16T04:42:41;13.40;;;8.83;;
72205;SDS011;60111;48.286;7.812;2023-04-16T04:45:13;9.95;;;8.78;;
72205;SDS011;60111;48.286;7.812;2023-04-16T04:47:46;9.20;;;7.57;;
72205;SDS011;60111;48.286;7.812;2023-04-16T04:50:19;9.68;;;8.28;;
72205;SDS011;60111;48.286;7.812;2023-04-16T04:52:52;10.10;;;8.73;;
72205;SDS011;60111;48.286;7.812;2023-04-16T04:55:25;9.60;;;8.53;;
72205;SDS011;60111;48.286;7.812;2023-04-16T04:57:59;9.10;;;8.13;;
72205;SDS011;60111;48.286;7.812;2023-04-16T05:00:32;13.22;;;8.33;;
72205;SDS011;60111;48.286;7.812;2023-04-16T05:03:08;8.10;;;7.30;;
72205;SDS011;60111;48.286;7.812;2023-04-16T05:05:41;9.65;;;7.60;;
72205;SDS011;60111;48.286;7.812;2023-04-16T05:08:16;10.18;;;8.30;;
72205;SDS011;60111;48.286;7.812;2023-04-16T05:10:48;8.93;;;7.50;;
72205;SDS011;60111;48.286;7.812;2023-04-16T05:13:20;9.03;;;7.55;;
72205;SDS011;60111;48.286;7.812;2023-04-16T05:15:53;9.68;;;8.38;;
72205;SDS011;60111;48.286;7.812;2023-04-16T05:18:26;9.58;;;7.92;;
72205;SDS011;60111;48.286;7.812;2023-04-16T05:20:58;9.38;;;8.48;;
72205;SDS011;60111;48.286;7.812;2023-04-16T05:23:31;9.18;;;8.28;;
72205;SDS011;60111;48.286;7.812;2023-04-16T05:26:03;10.13;;;7.50;;
72205;SDS011;60111;48.286;7.812;2023-04-16T05:28:36;9.03;;;7.50;;
72205;SDS011;60111;48.286;7.812;2023-04-16T05:31:08;8.58;;;7.55;;
72205;SDS011;60111;48.286;7.812;2023-04-16T05:33:43;7.65;;;6.90;;
72205;SDS011;60111;48.286;7.812;2023-04-16T05:36:15;8.75;;;7.85;;
72205;SDS011;60111;48.286;7.812;2023-04-16T05:38:49;10.53;;;8.00;;
72205;SDS011;60111;48.286;7.812;2023-04-16T05:41:23;8.15;;;6.70;;
72205;SDS011;60111;48.286;7.812;2023-04-16T05:43:55;7.30;;;6.45;;
72205;SDS011;60111;48.286;7.812;2023-04-16T05:46:28;7.10;;;6.42;;
72205;SDS011;60111;48.286;7.812;2023-04-16T05:49:01;8.45;;;6.22;;
72205;SDS011;60111;48.286;7.812;2023-04-16T05:51:33;7.72;;;6.92;;
72205;SDS011;60111;48.286;7.812;2023-04-16T05:54:06;7.33;;;6.28;;
72205;SDS011;60111;48.286;7.812;2023-04-16T05:56:39;7.60;;;6.40;;
72205;SDS011;60111;48.286;7.812;2023-04-16T05:59:11;6.83;;;6.13;;
72205;SDS011;60111;48.286;7.812;2023-04-16T06:01:44;6.40;;;5.80;;
72205;SDS011;60111;48.286;7.812;2023-04-16T06:04:16;5.40;;;4.90;;
72205;SDS011;60111;48.286;7.812;2023-04-16T06:06:49;6.97;;;5.75;;
72205;SDS011;60111;48.286;7.812;2023-04-16T06:09:22;7.45;;;6.70;;
72205;SDS011;60111;48.286;7.812;2023-04-16T06:11:54;7.20;;;6.50;;
72205;SDS011;60111;48.286;7.812;2023-04-16T06:14:27;6.72;;;6.03;;
72205;SDS011;60111;48.286;7.812;2023-04-16T06:17:00;8.43;;;6.23;;
72205;SDS011;60111;48.286;7.812;2023-04-16T06:19:32;6.83;;;5.30;;
72205;SDS011;60111;48.286;7.812;2023-04-16T06:22:06;6.10;;;5.50;;
72205;SDS011;60111;48.286;7.812;2023-04-16T06:24:39;6.05;;;5.40;;
72205;SDS011;60111;48.286;7.812;2023-04-16T06:27:11;6.37;;;5.65;;
72205;SDS011;60111;48.286;7.812;2023-04-16T06:29:44;5.85;;;5.33;;
72205;SDS011;60111;48.286;7.812;2023-04-16T06:32:17;7.55;;;6.15;;
72205;SDS011;60111;48.286;7.812;2023-04-16T06:34:49;7.05;;;6.35;;
72205;SDS011;60111;48.286;7.812;2023-04-16T06:37:22;7.45;;;6.70;;
72205;SDS011;60111;48.286;7.812;2023-04-16T06:39:55;8.00;;;7.20;;
72205;SDS011;60111;48.286;7.812;2023-04-16T06:42:27;7.95;;;6.50;;
72205;SDS011;60111;48.286;7.812;2023-04-16T06:45:00;8.28;;;7.08;;
72205;SDS011;60111;48.286;7.812;2023-04-16T06:47:32;7.08;;;6.40;;
72205;SDS011;60111;48.286;7.812;2023-04-16T06:50:06;8.08;;;6.92;;
72205;SDS011;60111;48.286;7.812;2023-04-16T06:52:39;10.03;;;6.65;;
72205;SDS011;60111;48.286;7.812;2023-04-16T06:55:11;8.00;;;6.80;;
72205;SDS011;60111;48.286;7.812;2023-04-16T06:57:44;9.97;;;7.60;;
72205;SDS011;60111;48.286;7.812;2023-04-16T07:00:17;8.58;;;6.85;;
72205;SDS011;60111;48.286;7.812;2023-04-16T07:02:49;9.25;;;6.87;;
72205;SDS011;60111;48.286;7.812;2023-04-16T07:05:22;8.45;;;7.08;;
72205;SDS011;60111;48.286;7.812;2023-04-16T07:07:54;8.78;;;6.92;;
72205;SDS011;60111;48.286;7.812;2023-04-16T07:10:27;9.88;;;7.85;;
72205;SDS011;60111;48.286;7.812;2023-04-16T07:13:01;9.15;;;7.45;;
72205;SDS011;60111;48.286;7.812;2023-04-16T07:15:34;8.87;;;7.40;;
72205;SDS011;60111;48.286;7.812;2023-04-16T07:18:06;9.50;;;7.35;;
72205;SDS011;60111;48.286;7.812;2023-04-16T07:20:40;7.90;;;6.43;;
72205;SDS011;60111;48.286;7.812;2023-04-16T07:23:13;10.90;;;7.10;;
72205;SDS011;60111;48.286;7.812;2023-04-16T07:25:45;8.53;;;7.10;;
72205;SDS011;60111;48.286;7.812;2023-04-16T07:28:18;9.95;;;7.30;;
72205;SDS011;60111;48.286;7.812;2023-04-16T07:30:51;10.43;;;7.43;;
72205;SDS011;60111;48.286;7.812;2023-04-16T07:33:24;9.13;;;6.25;;
72205;SDS011;60111;48.286;7.812;2023-04-16T07:35:57;9.15;;;6.50;;
72205;SDS011;60111;48.286;7.812;2023-04-16T07:38:29;9.25;;;7.37;;
72205;SDS011;60111;48.286;7.812;2023-04-16T07:41:02;8.15;;;6.92;;
72205;SDS011;60111;48.286;7.812;2023-04-16T07:43:34;8.03;;;6.70;;
72205;SDS011;60111;48.286;7.812;2023-04-16T07:46:07;8.25;;;7.37;;
72205;SDS011;60111;48.286;7.812;2023-04-16T07:48:41;9.85;;;8.20;;
72205;SDS011;60111;48.286;7.812;2023-04-16T07:51:14;9.25;;;7.58;;
72205;SDS011;60111;48.286;7.812;2023-04-16T07:53:48;9.80;;;7.80;;
72205;SDS011;60111;48.286;7.812;2023-04-16T07:56:21;17.03;;;10.17;;
72205;SDS011;60111;48.286;7.812;2023-04-16T07:58:53;15.58;;;9.50;;
72205;SDS011;60111;48.286;7.812;2023-04-16T08:01:26;14.90;;;8.90;;
72205;SDS011;60111;48.286;7.812;2023-04-16T08:03:58;10.60;;;7.63;;
72205;SDS011;60111;48.286;7.812;2023-04-16T08:06:31;13.00;;;8.28;;
72205;SDS011;60111;48.286;7.812;2023-04-16T08:09:03;15.55;;;10.38;;
72205;SDS011;60111;48.286;7.812;2023-04-16T08:11:36;11.45;;;8.98;;
72205;SDS011;60111;48.286;7.812;2023-04-16T08:14:09;13.38;;;9.58;;
72205;SDS011;60111;48.286;7.812;2023-04-16T08:16:43;11.17;;;9.13;;
72205;SDS011;60111;48.286;7.812;2023-04-16T08:19:15;14.77;;;8.87;;
72205;SDS011;60111;48.286;7.812;2023-04-16T08:21:48;10.80;;;8.68;;
72205;SDS011;60111;48.286;7.812;2023-04-16T08:24:21;11.53;;;9.30;;
72205;SDS011;60111;48.286;7.812;2023-04-16T08:26:53;13.62;;;10.05;;
72205;SDS011;60111;48.286;7.812;2023-04-16T08:29:26;14.28;;;9.95;;
72205;SDS011;60111;48.286;7.812;2023-04-16T08:31:59;11.00;;;8.85;;
72205;SDS011;60111;48.286;7.812;2023-04-16T08:34:31;8.78;;;7.87;;
72205;SDS011;60111;48.286;7.812;2023-04-16T08:37:05;10.43;;;7.65;;
72205;SDS011;60111;48.286;7.812;2023-04-16T08:39:38;10.18;;;8.13;;
72205;SDS011;60111;48.286;7.812;2023-04-16T08:42:12;15.25;;;8.38;;
72205;SDS011;60111;48.286;7.812;2023-04-16T08:45:40;9.65;;;7.78;;
72205;SDS011;60111;48.286;7.812;2023-04-16T08:47:48;9.93;;;7.80;;
72205;SDS011;60111;48.286;7.812;2023-04-16T08:50:22;13.33;;;8.20;;
72205;SDS011;60111;48.286;7.812;2023-04-16T08:52:57;10.88;;;8.03;;
72205;SDS011;60111;48.286;7.812;2023-04-16T08:58:12;10.65;;;8.48;;
72205;SDS011;60111;48.286;7.812;2023-04-16T09:00:46;9.65;;;8.15;;
72205;SDS011;60111;48.286;7.812;2023-04-16T09:03:20;12.70;;;9.23;;
72205;SDS011;60111;48.286;7.812;2023-04-16T09:05:53;11.90;;;8.65;;
72205;SDS011;60111;48.286;7.812;2023-04-16T09:08:28;13.37;;;9.47;;
72205;SDS011;60111;48.286;7.812;2023-04-16T09:11:01;10.63;;;8.40;;
72205;SDS011;60111;48.286;7.812;2023-04-16T09:13:34;14.47;;;9.13;;
72205;SDS011;60111;48.286;7.812;2023-04-16T09:16:09;11.80;;;8.73;;
72205;SDS011;60111;48.286;7.812;2023-04-16T09:18:43;14.13;;;9.30;;
72205;SDS011;60111;48.286;7.812;2023-04-16T09:21:17;14.07;;;10.00;;
72205;SDS011;60111;48.286;7.812;2023-04-16T09:26:23;15.88;;;9.70;;
72205;SDS011;60111;48.286;7.812;2023-04-16T09:28:56;13.77;;;10.27;;
72205;SDS011;60111;48.286;7.812;2023-04-16T09:31:29;14.77;;;10.90;;
72205;SDS011;60111;48.286;7.812;2023-04-16T09:34:05;13.25;;;9.88;;
72205;SDS011;60111;48.286;7.812;2023-04-16T09:36:40;14.65;;;10.32;;
72205;SDS011;60111;48.286;7.812;2023-04-16T09:39:17;13.72;;;10.00;;
72205;SDS011;60111;48.286;7.812;2023-04-16T09:41:48;14.10;;;9.83;;
72205;SDS011;60111;48.286;7.812;2023-04-16T09:44:33;17.30;;;11.50;;
72205;SDS011;60111;48.286;7.812;2023-04-16T09:47:07;17.85;;;11.38;;
72205;SDS011;60111;48.286;7.812;2023-04-16T09:49:41;15.77;;;10.57;;
72205;SDS011;60111;48.286;7.812;2023-04-16T09:52:14;13.05;;;9.63;;
72205;SDS011;60111;48.286;7.812;2023-04-16T09:57:22;15.18;;;10.80;;
72205;SDS011;60111;48.286;7.812;2023-04-16T10:00:02;18.53;;;12.93;;
72205;SDS011;60111;48.286;7.812;2023-04-16T10:02:40;16.97;;;11.93;;
72205;SDS011;60111;48.286;7.812;2023-04-16T10:05:13;35.63;;;25.33;;
72205;SDS011;60111;48.286;7.812;2023-04-16T10:10:19;17.00;;;11.43;;
72205;SDS011;60111;48.286;7.812;2023-04-16T10:12:53;29.32;;;20.08;;
72205;SDS011;60111;48.286;7.812;2023-04-16T10:15:27;27.85;;;18.45;;
72205;SDS011;60111;48.286;7.812;2023-04-16T10:18:01;21.05;;;14.18;;
72205;SDS011;60111;48.286;7.812;2023-04-16T10:20:35;16.40;;;11.23;;
72205;SDS011;60111;48.286;7.812;2023-04-16T10:23:08;15.53;;;11.10;;
72205;SDS011;60111;48.286;7.812;2023-04-16T10:25:41;16.27;;;11.08;;
72205;SDS011;60111;48.286;7.812;2023-04-16T10:28:15;14.10;;;10.73;;
72205;SDS011;60111;48.286;7.812;2023-04-16T10:30:48;13.13;;;9.55;;
72205;SDS011;60111;48.286;7.812;2023-04-16T10:33:31;19.62;;;12.15;;
72205;SDS011;60111;48.286;7.812;2023-04-16T10:38:47;21.70;;;13.43;;
72205;SDS011;60111;48.286;7.812;2023-04-16T10:41:22;15.65;;;10.72;;
72205;SDS011;60111;48.286;7.812;2023-04-16T10:44:08;15.93;;;10.55;;
72205;SDS011;60111;48.286;7.812;2023-04-16T10:46:43;13.28;;;9.78;;
72205;SDS011;60111;48.286;7.812;2023-04-16T10:49:22;16.60;;;10.58;;
72205;SDS011;60111;48.286;7.812;2023-04-16T10:52:06;15.18;;;9.40;;
72205;SDS011;60111;48.286;7.812;2023-04-16T10:54:44;15.70;;;9.83;;
72205;SDS011;60111;48.286;7.812;2023-04-16T10:57:20;13.22;;;9.10;;
72205;SDS011;60111;48.286;7.812;2023-04-16T10:59:53;12.35;;;8.85;;
72205;SDS011;60111;48.286;7.812;2023-04-16T11:02:27;13.32;;;9.00;;
72205;SDS011;60111;48.286;7.812;2023-04-16T11:05:00;13.23;;;9.90;;
72205;SDS011;60111;48.286;7.812;2023-04-16T11:07:33;13.00;;;8.83;;
72205;SDS011;60111;48.286;7.812;2023-04-16T11:10:11;13.10;;;9.58;;
72205;SDS011;60111;48.286;7.812;2023-04-16T11:12:49;16.70;;;10.28;;
72205;SDS011;60111;48.286;7.812;2023-04-16T11:15:19;13.72;;;9.53;;
72205;SDS011;60111;48.286;7.812;2023-04-16T11:17:53;14.68;;;9.75;;
72205;SDS011;60111;48.286;7.812;2023-04-16T11:20:26;13.00;;;9.20;;
72205;SDS011;60111;48.286;7.812;2023-04-16T11:22:59;14.18;;;10.08;;
72205;SDS011;60111;48.286;7.812;2023-04-16T11:25:32;14.23;;;10.03;;
72205;SDS011;60111;48.286;7.812;2023-04-16T11:28:06;12.00;;;9.30;;
72205;SDS011;60111;48.286;7.812;2023-04-16T11:30:38;13.62;;;9.80;;
72205;SDS011;60111;48.286;7.812;2023-04-16T11:33:12;14.54;;;10.54;;
72205;SDS011;60111;48.286;7.812;2023-04-16T11:35:54;14.38;;;10.00;;
72205;SDS011;60111;48.286;7.812;2023-04-16T11:38:31;14.93;;;11.33;;
72205;SDS011;60111;48.286;7.812;2023-04-16T11:41:08;15.43;;;10.82;;
72205;SDS011;60111;48.286;7.812;2023-04-16T11:43:43;14.10;;;11.00;;
72205;SDS011;60111;48.286;7.812;2023-04-16T11:46:15;14.40;;;9.90;;
72205;SDS011;60111;48.286;7.812;2023-04-16T11:48:49;12.68;;;9.63;;
72205;SDS011;60111;48.286;7.812;2023-04-16T11:51:24;12.95;;;9.63;;
72205;SDS011;60111;48.286;7.812;2023-04-16T11:53:57;12.05;;;9.63;;
72205;SDS011;60111;48.286;7.812;2023-04-16T11:56:31;14.87;;;10.43;;
72205;SDS011;60111;48.286;7.812;2023-04-16T11:59:12;13.50;;;10.45;;
72205;SDS011;60111;48.286;7.812;2023-04-16T12:01:51;14.33;;;9.85;;
72205;SDS011;60111;48.286;7.812;2023-04-16T12:04:26;13.50;;;10.55;;
72205;SDS011;60111;48.286;7.812;2023-04-16T12:07:05;15.60;;;11.00;;
72205;SDS011;60111;48.286;7.812;2023-04-16T12:09:40;14.47;;;10.05;;
72205;SDS011;60111;48.286;7.812;2023-04-16T12:12:24;16.67;;;11.83;;
72205;SDS011;60111;48.286;7.812;2023-04-16T12:14:58;14.63;;;11.30;;
72205;SDS011;60111;48.286;7.812;2023-04-16T12:17:33;15.15;;;11.00;;
72205;SDS011;60111;48.286;7.812;2023-04-16T12:20:10;15.13;;;11.43;;
72205;SDS011;60111;48.286;7.812;2023-04-16T12:22:46;14.63;;;10.67;;
72205;SDS011;60111;48.286;7.812;2023-04-16T12:25:23;13.18;;;10.35;;
72205;SDS011;60111;48.286;7.812;2023-04-16T12:27:56;15.17;;;11.13;;
72205;SDS011;60111;48.286;7.812;2023-04-16T12:30:29;15.20;;;10.67;;
72205;SDS011;60111;48.286;7.812;2023-04-16T12:33:17;14.75;;;10.95;;
72205;SDS011;60111;48.286;7.812;2023-04-16T12:35:50;15.53;;;11.43;;
72205;SDS011;60111;48.286;7.812;2023-04-16T12:38:23;13.05;;;10.58;;
72205;SDS011;60111;48.286;7.812;2023-04-16T12:40:56;15.55;;;11.18;;
72205;SDS011;60111;48.286;7.812;2023-04-16T12:43:31;14.05;;;10.28;;
72205;SDS011;60111;48.286;7.812;2023-04-16T12:46:03;15.10;;;11.35;;
72205;SDS011;60111;48.286;7.812;2023-04-16T12:48:36;13.43;;;10.10;;
72205;SDS011;60111;48.286;7.812;2023-04-16T12:51:09;15.68;;;10.32;;
72205;SDS011;60111;48.286;7.812;2023-04-16T12:53:42;14.13;;;10.48;;
72205;SDS011;60111;48.286;7.812;2023-04-16T12:56:14;13.28;;;10.28;;
72205;SDS011;60111;48.286;7.812;2023-04-16T12:58:47;15.05;;;11.53;;
72205;SDS011;60111;48.286;7.812;2023-04-16T13:01:22;16.43;;;11.13;;
72205;SDS011;60111;48.286;7.812;2023-04-16T13:03:55;15.45;;;10.55;;
72205;SDS011;60111;48.286;7.812;2023-04-16T13:06:28;15.05;;;10.13;;
72205;SDS011;60111;48.286;7.812;2023-04-16T13:09:03;14.60;;;10.13;;
72205;SDS011;60111;48.286;7.812;2023-04-16T13:11:36;13.65;;;9.55;;
72205;SDS011;60111;48.286;7.812;2023-04-16T13:14:09;13.95;;;9.88;;
72205;SDS011;60111;48.286;7.812;2023-04-16T13:16:42;14.75;;;11.00;;
72205;SDS011;60111;48.286;7.812;2023-04-16T13:19:14;15.65;;;10.28;;
72205;SDS011;60111;48.286;7.812;2023-04-16T13:21:48;14.30;;;10.08;;
72205;SDS011;60111;48.286;7.812;2023-04-16T13:24:21;17.45;;;11.25;;
72205;SDS011;60111;48.286;7.812;2023-04-16T13:26:54;15.72;;;11.05;;
72205;SDS011;60111;48.286;7.812;2023-04-16T13:29:27;14.90;;;10.40;;
72205;SDS011;60111;48.286;7.812;2023-04-16T13:31:59;14.95;;;11.00;;
72205;SDS011;60111;48.286;7.812;2023-04-16T13:34:32;14.60;;;9.98;;
72205;SDS011;60111;48.286;7.812;2023-04-16T13:37:05;12.70;;;9.83;;
72205;SDS011;60111;48.286;7.812;2023-04-16T13:39:38;13.80;;;9.55;;
72205;SDS011;60111;48.286;7.812;2023-04-16T13:42:10;14.10;;;10.28;;
72205;SDS011;60111;48.286;7.812;2023-04-16T13:44:43;13.63;;;10.27;;
72205;SDS011;60111;48.286;7.812;2023-04-16T13:49:49;12.07;;;9.18;;
72205;SDS011;60111;48.286;7.812;2023-04-16T13:52:22;15.35;;;10.50;;
72205;SDS011;60111;48.286;7.812;2023-04-16T13:54:54;14.58;;;10.10;;
72205;SDS011;60111;48.286;7.812;2023-04-16T13:57:27;13.13;;;9.78;;
72205;SDS011;60111;48.286;7.812;2023-04-16T14:00:00;14.35;;;10.38;;
72205;SDS011;60111;48.286;7.812;2023-04-16T14:02:33;13.10;;;10.20;;
72205;SDS011;60111;48.286;7.812;2023-04-16T14:05:06;12.68;;;9.53;;
72205;SDS011;60111;48.286;7.812;2023-04-16T14:07:39;14.10;;;9.17;;
72205;SDS011;60111;48.286;7.812;2023-04-16T14:10:12;15.78;;;9.85;;
72205;SDS011;60111;48.286;7.812;2023-04-16T14:12:46;13.30;;;9.53;;
72205;SDS011;60111;48.286;7.812;2023-04-16T14:15:19;13.23;;;9.50;;
72205;SDS011;60111;48.286;7.812;2023-04-16T14:17:52;13.18;;;9.55;;
72205;SDS011;60111;48.286;7.812;2023-04-16T14:20:24;12.65;;;9.45;;
72205;SDS011;60111;48.286;7.812;2023-04-16T14:22:57;11.78;;;9.00;;
72205;SDS011;60111;48.286;7.812;2023-04-16T14:25:30;14.07;;;10.32;;
72205;SDS011;60111;48.286;7.812;2023-04-16T14:28:03;13.30;;;9.50;;
72205;SDS011;60111;48.286;7.812;2023-04-16T14:30:35;13.90;;;9.55;;
72205;SDS011;60111;48.286;7.812;2023-04-16T14:33:08;13.70;;;9.58;;
72205;SDS011;60111;48.286;7.812;2023-04-16T14:35:42;12.33;;;9.38;;
72205;SDS011;60111;48.286;7.812;2023-04-16T14:40:47;20.52;;;14.18;;
72205;SDS011;60111;48.286;7.812;2023-04-16T14:43:19;16.23;;;10.95;;
72205;SDS011;60111;48.286;7.812;2023-04-16T14:45:52;19.80;;;10.90;;
72205;SDS011;60111;48.286;7.812;2023-04-16T14:48:26;12.23;;;9.57;;
72205;SDS011;60111;48.286;7.812;2023-04-16T14:50:58;14.38;;;10.10;;
72205;SDS011;60111;48.286;7.812;2023-04-16T14:53:31;18.20;;;13.35;;
72205;SDS011;60111;48.286;7.812;2023-04-16T14:56:05;14.30;;;10.85;;
72205;SDS011;60111;48.286;7.812;2023-04-16T14:58:38;14.50;;;10.85;;
72205;SDS011;60111;48.286;7.812;2023-04-16T15:01:12;13.22;;;9.35;;
72205;SDS011;60111;48.286;7.812;2023-04-16T15:03:45;13.40;;;9.67;;
72205;SDS011;60111;48.286;7.812;2023-04-16T15:06:18;11.40;;;8.87;;
72205;SDS011;60111;48.286;7.812;2023-04-16T15:08:51;13.35;;;9.93;;
72205;SDS011;60111;48.286;7.812;2023-04-16T15:11:24;16.20;;;9.40;;
72205;SDS011;60111;48.286;7.812;2023-04-16T15:13:58;13.65;;;9.30;;
72205;SDS011;60111;48.286;7.812;2023-04-16T15:16:31;12.98;;;8.60;;
72205;SDS011;60111;48.286;7.812;2023-04-16T15:19:03;13.68;;;9.75;;
72205;SDS011;60111;48.286;7.812;2023-04-16T15:21:36;12.90;;;9.50;;
72205;SDS011;60111;48.286;7.812;2023-04-16T15:24:09;11.50;;;8.15;;
72205;SDS011;60111;48.286;7.812;2023-04-16T15:26:42;12.18;;;8.93;;
72205;SDS011;60111;48.286;7.812;2023-04-16T15:29:15;12.30;;;8.98;;
72205;SDS011;60111;48.286;7.812;2023-04-16T15:31:47;12.03;;;8.20;;
72205;SDS011;60111;48.286;7.812;2023-04-16T15:34:20;13.07;;;9.37;;